sensor_id;sensor_type;location;lat;lon;timestamp;P1;durP1;ratioP1;P2;durP2;ratioP2
73563;SDS011;61834;50.196;6.454;2023-03-01T00:01:03;13.25;;;7.32;;
73563;SDS011;61834;50.196;6.454;2023-03-01T00:03:31;13.85;;;7.50;;
73563;SDS011;61834;50.196;6.454;2023-03-01T00:05:57;13.68;;;7.80;;
73563;SDS011;61834;50.196;6.454;2023-03-01T00:08:24;15.00;;;7.32;;
73563;SDS011;61834;50.196;6.454;2023-03-01T00:10:59;14.98;;;8.13;;
73563;SDS011;61834;50.196;6.454;2023-03-01T00:13:36;14.13;;;7.57;;
73563;SDS011;61834;50.196;6.454;2023-03-01T00:16:05;14.90;;;7.85;;
73563;SDS011;61834;50.196;6.454;2023-03-01T00:18:32;13.93;;;8.18;;
73563;SDS011;61834;50.196;6.454;2023-03-01T00:20:58;16.10;;;8.18;;
73563;SDS011;61834;50.196;6.454;2023-03-01T00:23:24;19.70;;;8.02;;
73563;SDS011;61834;50.196;6.454;2023-03-01T00:25:50;17.05;;;8.55;;
73563;SDS011;61834;50.196;6.454;2023-03-01T00:28:16;18.00;;;9.13;;
73563;SDS011;61834;50.196;6.454;2023-03-01T00:30:42;17.80;;;8.73;;
73563;SDS011;61834;50.196;6.454;2023-03-01T00:33:08;17.13;;;8.88;;
73563;SDS011;61834;50.196;6.454;2023-03-01T00:35:34;16.50;;;9.10;;
73563;SDS011;61834;50.196;6.454;2023-03-01T00:38:00;14.68;;;8.65;;
73563;SDS011;61834;50.196;6.454;2023-03-01T00:40:27;17.13;;;9.07;;
73563;SDS011;61834;50.196;6.454;2023-03-01T00:42:53;17.70;;;8.40;;
73563;SDS011;61834;50.196;6.454;2023-03-01T00:45:19;15.85;;;8.10;;
73563;SDS011;61834;50.196;6.454;2023-03-01T00:47:45;16.35;;;8.23;;
73563;SDS011;61834;50.196;6.454;2023-03-01T00:50:10;15.85;;;7.88;;
73563;SDS011;61834;50.196;6.454;2023-03-01T00:52:36;14.23;;;8.02;;
73563;SDS011;61834;50.196;6.454;2023-03-01T00:55:02;14.68;;;9.35;;
73563;SDS011;61834;50.196;6.454;2023-03-01T00:57:28;13.20;;;8.20;;
73563;SDS011;61834;50.196;6.454;2023-03-01T00:59:54;15.07;;;9.20;;
73563;SDS011;61834;50.196;6.454;2023-03-01T01:02:19;14.52;;;8.65;;
73563;SDS011;61834;50.196;6.454;2023-03-01T01:04:45;15.88;;;8.73;;
73563;SDS011;61834;50.196;6.454;2023-03-01T01:07:11;14.63;;;8.90;;
73563;SDS011;61834;50.196;6.454;2023-03-01T01:09:37;16.17;;;8.02;;
73563;SDS011;61834;50.196;6.454;2023-03-01T01:12:03;13.00;;;7.82;;
73563;SDS011;61834;50.196;6.454;2023-03-01T01:14:28;14.85;;;8.93;;
73563;SDS011;61834;50.196;6.454;2023-03-01T01:16:54;13.43;;;7.78;;
73563;SDS011;61834;50.196;6.454;2023-03-01T01:19:20;16.10;;;9.05;;
73563;SDS011;61834;50.196;6.454;2023-03-01T01:21:46;17.70;;;9.63;;
73563;SDS011;61834;50.196;6.454;2023-03-01T01:24:13;17.10;;;9.38;;
73563;SDS011;61834;50.196;6.454;2023-03-01T01:26:39;15.48;;;9.35;;
73563;SDS011;61834;50.196;6.454;2023-03-01T01:29:05;15.93;;;8.70;;
73563;SDS011;61834;50.196;6.454;2023-03-01T01:31:32;14.90;;;9.20;;
73563;SDS011;61834;50.196;6.454;2023-03-01T01:33:59;15.85;;;9.38;;
73563;SDS011;61834;50.196;6.454;2023-03-01T01:36:26;16.73;;;9.88;;
73563;SDS011;61834;50.196;6.454;2023-03-01T01:38:52;16.55;;;8.90;;
73563;SDS011;61834;50.196;6.454;2023-03-01T01:41:19;14.95;;;9.00;;
73563;SDS011;61834;50.196;6.454;2023-03-01T01:43:47;15.27;;;9.73;;
73563;SDS011;61834;50.196;6.454;2023-03-01T01:49:00;14.52;;;8.55;;
73563;SDS011;61834;50.196;6.454;2023-03-01T01:51:35;16.80;;;9.57;;
73563;SDS011;61834;50.196;6.454;2023-03-01T01:54:11;15.65;;;8.98;;
73563;SDS011;61834;50.196;6.454;2023-03-01T01:56:39;16.85;;;9.68;;
73563;SDS011;61834;50.196;6.454;2023-03-01T01:59:09;15.80;;;8.73;;
73563;SDS011;61834;50.196;6.454;2023-03-01T02:01:36;18.30;;;10.05;;
73563;SDS011;61834;50.196;6.454;2023-03-01T02:04:01;16.88;;;9.98;;
73563;SDS011;61834;50.196;6.454;2023-03-01T02:06:38;19.45;;;10.93;;
73563;SDS011;61834;50.196;6.454;2023-03-01T02:09:13;16.48;;;10.68;;
73563;SDS011;61834;50.196;6.454;2023-03-01T02:11:41;17.25;;;9.25;;
73563;SDS011;61834;50.196;6.454;2023-03-01T02:14:08;24.35;;;11.00;;
73563;SDS011;61834;50.196;6.454;2023-03-01T02:16:33;16.33;;;9.38;;
73563;SDS011;61834;50.196;6.454;2023-03-01T02:18:59;17.38;;;10.23;;
73563;SDS011;61834;50.196;6.454;2023-03-01T02:24:03;15.88;;;9.63;;
73563;SDS011;61834;50.196;6.454;2023-03-01T02:26:42;24.85;;;10.50;;
73563;SDS011;61834;50.196;6.454;2023-03-01T02:29:11;17.50;;;9.70;;
73563;SDS011;61834;50.196;6.454;2023-03-01T02:31:37;19.23;;;9.75;;
73563;SDS011;61834;50.196;6.454;2023-03-01T02:34:12;18.05;;;9.55;;
73563;SDS011;61834;50.196;6.454;2023-03-01T02:36:40;20.20;;;9.18;;
73563;SDS011;61834;50.196;6.454;2023-03-01T02:39:12;17.65;;;10.82;;
73563;SDS011;61834;50.196;6.454;2023-03-01T02:41:44;18.13;;;9.88;;
73563;SDS011;61834;50.196;6.454;2023-03-01T02:44:13;18.23;;;10.88;;
73563;SDS011;61834;50.196;6.454;2023-03-01T02:46:42;18.25;;;10.60;;
73563;SDS011;61834;50.196;6.454;2023-03-01T02:49:29;20.02;;;11.57;;
73563;SDS011;61834;50.196;6.454;2023-03-01T02:54:51;22.98;;;12.35;;
73563;SDS011;61834;50.196;6.454;2023-03-01T02:57:23;21.55;;;10.90;;
73563;SDS011;61834;50.196;6.454;2023-03-01T02:59:50;20.35;;;11.60;;
73563;SDS011;61834;50.196;6.454;2023-03-01T03:02:19;18.52;;;11.35;;
73563;SDS011;61834;50.196;6.454;2023-03-01T03:05:17;18.77;;;11.00;;
73563;SDS011;61834;50.196;6.454;2023-03-01T03:07:45;19.45;;;11.43;;
73563;SDS011;61834;50.196;6.454;2023-03-01T03:10:16;19.40;;;11.20;;
73563;SDS011;61834;50.196;6.454;2023-03-01T03:12:47;21.33;;;11.57;;
73563;SDS011;61834;50.196;6.454;2023-03-01T03:15:15;24.83;;;12.68;;
73563;SDS011;61834;50.196;6.454;2023-03-01T03:17:41;19.63;;;10.82;;
73563;SDS011;61834;50.196;6.454;2023-03-01T03:20:08;25.52;;;12.18;;
73563;SDS011;61834;50.196;6.454;2023-03-01T03:22:39;21.95;;;11.43;;
73563;SDS011;61834;50.196;6.454;2023-03-01T03:25:06;23.05;;;12.63;;
73563;SDS011;61834;50.196;6.454;2023-03-01T03:27:35;23.00;;;10.85;;
73563;SDS011;61834;50.196;6.454;2023-03-01T03:30:02;21.15;;;11.38;;
73563;SDS011;61834;50.196;6.454;2023-03-01T03:32:30;21.50;;;11.90;;
73563;SDS011;61834;50.196;6.454;2023-03-01T03:34:55;20.23;;;12.20;;
73563;SDS011;61834;50.196;6.454;2023-03-01T03:37:21;21.83;;;11.80;;
73563;SDS011;61834;50.196;6.454;2023-03-01T03:40:04;23.35;;;12.60;;
73563;SDS011;61834;50.196;6.454;2023-03-01T03:42:40;19.98;;;11.63;;
73563;SDS011;61834;50.196;6.454;2023-03-01T03:45:06;22.85;;;12.50;;
73563;SDS011;61834;50.196;6.454;2023-03-01T03:47:31;22.15;;;13.23;;
73563;SDS011;61834;50.196;6.454;2023-03-01T03:49:57;22.20;;;12.35;;
73563;SDS011;61834;50.196;6.454;2023-03-01T03:52:22;21.60;;;12.30;;
73563;SDS011;61834;50.196;6.454;2023-03-01T03:54:47;22.50;;;13.05;;
73563;SDS011;61834;50.196;6.454;2023-03-01T03:57:13;23.85;;;12.75;;
73563;SDS011;61834;50.196;6.454;2023-03-01T03:59:38;21.50;;;12.02;;
73563;SDS011;61834;50.196;6.454;2023-03-01T04:02:04;22.70;;;11.98;;
73563;SDS011;61834;50.196;6.454;2023-03-01T04:04:29;28.95;;;12.85;;
73563;SDS011;61834;50.196;6.454;2023-03-01T04:06:54;24.50;;;11.98;;
73563;SDS011;61834;50.196;6.454;2023-03-01T04:09:20;22.85;;;13.10;;
73563;SDS011;61834;50.196;6.454;2023-03-01T04:11:45;21.80;;;11.75;;
73563;SDS011;61834;50.196;6.454;2023-03-01T04:14:11;20.23;;;12.27;;
73563;SDS011;61834;50.196;6.454;2023-03-01T04:16:36;23.00;;;12.05;;
73563;SDS011;61834;50.196;6.454;2023-03-01T04:19:01;24.67;;;13.60;;
73563;SDS011;61834;50.196;6.454;2023-03-01T04:21:27;26.50;;;13.07;;
73563;SDS011;61834;50.196;6.454;2023-03-01T04:23:53;24.73;;;12.43;;
73563;SDS011;61834;50.196;6.454;2023-03-01T04:26:19;20.17;;;12.23;;
73563;SDS011;61834;50.196;6.454;2023-03-01T04:28:45;24.38;;;13.65;;
73563;SDS011;61834;50.196;6.454;2023-03-01T04:31:12;26.25;;;14.70;;
73563;SDS011;61834;50.196;6.454;2023-03-01T04:33:40;26.90;;;13.55;;
73563;SDS011;61834;50.196;6.454;2023-03-01T04:36:17;26.27;;;14.07;;
73563;SDS011;61834;50.196;6.454;2023-03-01T04:38:43;27.58;;;14.32;;
73563;SDS011;61834;50.196;6.454;2023-03-01T04:41:12;24.48;;;13.60;;
73563;SDS011;61834;50.196;6.454;2023-03-01T04:43:38;22.15;;;13.90;;
73563;SDS011;61834;50.196;6.454;2023-03-01T04:46:05;24.02;;;13.18;;
73563;SDS011;61834;50.196;6.454;2023-03-01T04:48:35;28.52;;;14.27;;
73563;SDS011;61834;50.196;6.454;2023-03-01T04:51:02;27.05;;;15.07;;
73563;SDS011;61834;50.196;6.454;2023-03-01T04:53:29;28.50;;;14.88;;
73563;SDS011;61834;50.196;6.454;2023-03-01T04:55:55;32.38;;;14.00;;
73563;SDS011;61834;50.196;6.454;2023-03-01T04:58:24;37.17;;;14.43;;
73563;SDS011;61834;50.196;6.454;2023-03-01T05:00:51;29.38;;;13.98;;
73563;SDS011;61834;50.196;6.454;2023-03-01T05:03:17;25.70;;;13.77;;
73563;SDS011;61834;50.196;6.454;2023-03-01T05:05:43;27.27;;;13.68;;
73563;SDS011;61834;50.196;6.454;2023-03-01T05:08:10;22.80;;;13.27;;
73563;SDS011;61834;50.196;6.454;2023-03-01T05:10:43;24.33;;;13.75;;
73563;SDS011;61834;50.196;6.454;2023-03-01T05:13:14;27.20;;;15.30;;
73563;SDS011;61834;50.196;6.454;2023-03-01T05:15:45;27.88;;;15.07;;
73563;SDS011;61834;50.196;6.454;2023-03-01T05:18:30;31.45;;;14.93;;
73563;SDS011;61834;50.196;6.454;2023-03-01T05:21:07;31.60;;;14.75;;
73563;SDS011;61834;50.196;6.454;2023-03-01T05:23:35;28.90;;;15.23;;
73563;SDS011;61834;50.196;6.454;2023-03-01T05:26:01;34.63;;;16.02;;
73563;SDS011;61834;50.196;6.454;2023-03-01T05:28:29;47.67;;;16.65;;
73563;SDS011;61834;50.196;6.454;2023-03-01T05:30:55;35.15;;;15.82;;
73563;SDS011;61834;50.196;6.454;2023-03-01T05:33:21;38.63;;;17.05;;
73563;SDS011;61834;50.196;6.454;2023-03-01T05:35:48;33.38;;;14.65;;
73563;SDS011;61834;50.196;6.454;2023-03-01T05:38:16;35.70;;;16.88;;
73563;SDS011;61834;50.196;6.454;2023-03-01T05:40:42;36.20;;;18.58;;
73563;SDS011;61834;50.196;6.454;2023-03-01T05:43:08;49.25;;;21.73;;
73563;SDS011;61834;50.196;6.454;2023-03-01T05:45:35;224.15;;;74.60;;
73563;SDS011;61834;50.196;6.454;2023-03-01T05:48:03;123.30;;;44.78;;
73563;SDS011;61834;50.196;6.454;2023-03-01T05:50:31;54.30;;;23.88;;
73563;SDS011;61834;50.196;6.454;2023-03-01T05:55:33;80.78;;;28.75;;
73563;SDS011;61834;50.196;6.454;2023-03-01T05:58:00;38.10;;;18.10;;
73563;SDS011;61834;50.196;6.454;2023-03-01T06:00:27;49.83;;;21.85;;
73563;SDS011;61834;50.196;6.454;2023-03-01T06:02:54;41.90;;;19.65;;
73563;SDS011;61834;50.196;6.454;2023-03-01T06:05:20;33.45;;;16.95;;
73563;SDS011;61834;50.196;6.454;2023-03-01T06:07:47;37.08;;;17.15;;
73563;SDS011;61834;50.196;6.454;2023-03-01T06:10:12;31.08;;;15.77;;
73563;SDS011;61834;50.196;6.454;2023-03-01T06:12:40;31.40;;;15.20;;
73563;SDS011;61834;50.196;6.454;2023-03-01T06:15:08;31.00;;;14.95;;
73563;SDS011;61834;50.196;6.454;2023-03-01T06:17:37;39.45;;;17.38;;
73563;SDS011;61834;50.196;6.454;2023-03-01T06:20:09;34.20;;;17.10;;
73563;SDS011;61834;50.196;6.454;2023-03-01T06:22:36;28.40;;;15.68;;
73563;SDS011;61834;50.196;6.454;2023-03-01T06:25:01;38.47;;;16.08;;
73563;SDS011;61834;50.196;6.454;2023-03-01T06:27:27;35.72;;;17.90;;
73563;SDS011;61834;50.196;6.454;2023-03-01T06:29:53;31.00;;;15.45;;
73563;SDS011;61834;50.196;6.454;2023-03-01T06:32:18;28.02;;;15.90;;
73563;SDS011;61834;50.196;6.454;2023-03-01T06:34:44;28.35;;;16.25;;
73563;SDS011;61834;50.196;6.454;2023-03-01T06:37:09;32.83;;;16.58;;
73563;SDS011;61834;50.196;6.454;2023-03-01T06:39:35;29.40;;;16.05;;
73563;SDS011;61834;50.196;6.454;2023-03-01T06:42:00;35.55;;;17.80;;
73563;SDS011;61834;50.196;6.454;2023-03-01T06:44:26;32.22;;;16.33;;
73563;SDS011;61834;50.196;6.454;2023-03-01T06:46:52;33.28;;;17.05;;
73563;SDS011;61834;50.196;6.454;2023-03-01T06:49:17;29.63;;;16.45;;
73563;SDS011;61834;50.196;6.454;2023-03-01T06:51:43;29.23;;;16.20;;
73563;SDS011;61834;50.196;6.454;2023-03-01T06:54:09;32.55;;;17.05;;
73563;SDS011;61834;50.196;6.454;2023-03-01T06:56:35;33.60;;;16.75;;
73563;SDS011;61834;50.196;6.454;2023-03-01T06:59:00;30.52;;;16.52;;
73563;SDS011;61834;50.196;6.454;2023-03-01T07:01:26;30.80;;;16.48;;
73563;SDS011;61834;50.196;6.454;2023-03-01T07:03:51;30.00;;;15.90;;
73563;SDS011;61834;50.196;6.454;2023-03-01T07:06:17;31.92;;;17.40;;
73563;SDS011;61834;50.196;6.454;2023-03-01T07:08:42;30.92;;;15.90;;
73563;SDS011;61834;50.196;6.454;2023-03-01T07:11:08;31.02;;;16.27;;
73563;SDS011;61834;50.196;6.454;2023-03-01T07:13:34;27.38;;;16.60;;
73563;SDS011;61834;50.196;6.454;2023-03-01T07:15:59;30.13;;;15.93;;
73563;SDS011;61834;50.196;6.454;2023-03-01T07:18:25;31.45;;;15.80;;
73563;SDS011;61834;50.196;6.454;2023-03-01T07:20:50;32.75;;;16.90;;
73563;SDS011;61834;50.196;6.454;2023-03-01T07:23:16;29.45;;;16.92;;
73563;SDS011;61834;50.196;6.454;2023-03-01T07:25:41;34.20;;;17.02;;
73563;SDS011;61834;50.196;6.454;2023-03-01T07:28:07;30.27;;;17.40;;
73563;SDS011;61834;50.196;6.454;2023-03-01T07:30:32;31.63;;;16.92;;
73563;SDS011;61834;50.196;6.454;2023-03-01T07:32:57;27.67;;;15.80;;
73563;SDS011;61834;50.196;6.454;2023-03-01T07:35:24;28.55;;;15.85;;
73563;SDS011;61834;50.196;6.454;2023-03-01T07:37:51;29.80;;;15.32;;
73563;SDS011;61834;50.196;6.454;2023-03-01T07:40:16;31.67;;;17.00;;
73563;SDS011;61834;50.196;6.454;2023-03-01T07:42:42;29.27;;;15.40;;
73563;SDS011;61834;50.196;6.454;2023-03-01T07:45:08;30.05;;;16.40;;
73563;SDS011;61834;50.196;6.454;2023-03-01T07:47:33;30.08;;;16.92;;
73563;SDS011;61834;50.196;6.454;2023-03-01T07:49:59;34.88;;;17.30;;
73563;SDS011;61834;50.196;6.454;2023-03-01T07:52:26;34.10;;;16.95;;
73563;SDS011;61834;50.196;6.454;2023-03-01T07:54:51;33.05;;;17.30;;
73563;SDS011;61834;50.196;6.454;2023-03-01T07:57:17;32.40;;;17.00;;
73563;SDS011;61834;50.196;6.454;2023-03-01T07:59:42;36.83;;;18.23;;
73563;SDS011;61834;50.196;6.454;2023-03-01T08:02:08;31.70;;;16.30;;
73563;SDS011;61834;50.196;6.454;2023-03-01T08:04:35;37.50;;;17.88;;
73563;SDS011;61834;50.196;6.454;2023-03-01T08:07:00;28.85;;;15.55;;
73563;SDS011;61834;50.196;6.454;2023-03-01T08:09:26;36.08;;;17.17;;
73563;SDS011;61834;50.196;6.454;2023-03-01T08:11:51;51.05;;;21.85;;
73563;SDS011;61834;50.196;6.454;2023-03-01T08:14:17;40.42;;;19.60;;
73563;SDS011;61834;50.196;6.454;2023-03-01T08:16:42;34.85;;;17.55;;
73563;SDS011;61834;50.196;6.454;2023-03-01T08:19:09;40.35;;;18.75;;
73563;SDS011;61834;50.196;6.454;2023-03-01T08:21:37;28.52;;;16.08;;
73563;SDS011;61834;50.196;6.454;2023-03-01T08:24:04;30.52;;;16.58;;
73563;SDS011;61834;50.196;6.454;2023-03-01T08:26:31;33.85;;;16.83;;
73563;SDS011;61834;50.196;6.454;2023-03-01T08:28:57;30.35;;;16.90;;
73563;SDS011;61834;50.196;6.454;2023-03-01T08:31:23;30.27;;;16.33;;
73563;SDS011;61834;50.196;6.454;2023-03-01T08:33:52;32.88;;;16.02;;
73563;SDS011;61834;50.196;6.454;2023-03-01T08:36:22;29.52;;;16.35;;
73563;SDS011;61834;50.196;6.454;2023-03-01T08:38:52;30.23;;;16.52;;
73563;SDS011;61834;50.196;6.454;2023-03-01T08:41:18;32.75;;;16.42;;
73563;SDS011;61834;50.196;6.454;2023-03-01T08:43:43;31.98;;;16.73;;
73563;SDS011;61834;50.196;6.454;2023-03-01T08:46:10;28.80;;;16.58;;
73563;SDS011;61834;50.196;6.454;2023-03-01T08:48:36;30.35;;;15.98;;
73563;SDS011;61834;50.196;6.454;2023-03-01T08:51:08;27.33;;;15.05;;
73563;SDS011;61834;50.196;6.454;2023-03-01T08:53:35;28.92;;;16.08;;
73563;SDS011;61834;50.196;6.454;2023-03-01T08:56:00;28.45;;;16.20;;
73563;SDS011;61834;50.196;6.454;2023-03-01T08:58:29;34.13;;;17.23;;
73563;SDS011;61834;50.196;6.454;2023-03-01T09:00:54;28.55;;;15.75;;
73563;SDS011;61834;50.196;6.454;2023-03-01T09:03:21;27.58;;;15.23;;
73563;SDS011;61834;50.196;6.454;2023-03-01T09:05:47;30.88;;;16.27;;
73563;SDS011;61834;50.196;6.454;2023-03-01T09:08:15;29.98;;;16.10;;
73563;SDS011;61834;50.196;6.454;2023-03-01T09:10:41;28.25;;;15.00;;
73563;SDS011;61834;50.196;6.454;2023-03-01T09:13:06;33.92;;;16.80;;
73563;SDS011;61834;50.196;6.454;2023-03-01T09:15:32;28.63;;;16.90;;
73563;SDS011;61834;50.196;6.454;2023-03-01T09:17:59;29.23;;;15.38;;
73563;SDS011;61834;50.196;6.454;2023-03-01T09:20:25;34.05;;;16.27;;
73563;SDS011;61834;50.196;6.454;2023-03-01T09:22:50;30.65;;;15.38;;
73563;SDS011;61834;50.196;6.454;2023-03-01T09:25:15;31.35;;;18.08;;
73563;SDS011;61834;50.196;6.454;2023-03-01T09:27:41;30.48;;;16.73;;
73563;SDS011;61834;50.196;6.454;2023-03-01T09:30:07;31.85;;;17.42;;
73563;SDS011;61834;50.196;6.454;2023-03-01T09:32:33;32.35;;;16.05;;
73563;SDS011;61834;50.196;6.454;2023-03-01T09:34:58;33.10;;;15.88;;
73563;SDS011;61834;50.196;6.454;2023-03-01T09:37:29;26.15;;;15.75;;
73563;SDS011;61834;50.196;6.454;2023-03-01T09:39:59;28.25;;;16.02;;
73563;SDS011;61834;50.196;6.454;2023-03-01T09:42:25;31.90;;;17.40;;
73563;SDS011;61834;50.196;6.454;2023-03-01T09:45:01;29.13;;;16.08;;
73563;SDS011;61834;50.196;6.454;2023-03-01T09:47:35;31.58;;;16.15;;
73563;SDS011;61834;50.196;6.454;2023-03-01T09:50:03;35.17;;;16.65;;
73563;SDS011;61834;50.196;6.454;2023-03-01T09:52:40;30.98;;;17.15;;
73563;SDS011;61834;50.196;6.454;2023-03-01T09:55:13;29.23;;;15.90;;
73563;SDS011;61834;50.196;6.454;2023-03-01T09:57:50;26.65;;;16.17;;
73563;SDS011;61834;50.196;6.454;2023-03-01T10:11:26;27.77;;;15.80;;
73563;SDS011;61834;50.196;6.454;2023-03-01T10:19:10;29.05;;;15.98;;
73563;SDS011;61834;50.196;6.454;2023-03-01T10:21:41;26.83;;;16.17;;
73563;SDS011;61834;50.196;6.454;2023-03-01T10:24:13;27.67;;;15.77;;
73563;SDS011;61834;50.196;6.454;2023-03-01T10:29:10;29.77;;;15.50;;
73563;SDS011;61834;50.196;6.454;2023-03-01T10:31:42;29.02;;;16.02;;
73563;SDS011;61834;50.196;6.454;2023-03-01T10:34:11;27.95;;;16.13;;
73563;SDS011;61834;50.196;6.454;2023-03-01T10:36:39;28.05;;;15.18;;
73563;SDS011;61834;50.196;6.454;2023-03-01T10:39:16;25.58;;;14.82;;
73563;SDS011;61834;50.196;6.454;2023-03-01T10:50:02;28.25;;;14.73;;
73563;SDS011;61834;50.196;6.454;2023-03-01T10:52:36;27.10;;;13.98;;
73563;SDS011;61834;50.196;6.454;2023-03-01T10:55:04;25.83;;;14.15;;
73563;SDS011;61834;50.196;6.454;2023-03-01T10:57:49;25.90;;;16.02;;
73563;SDS011;61834;50.196;6.454;2023-03-01T11:00:17;24.83;;;14.27;;
73563;SDS011;61834;50.196;6.454;2023-03-01T11:03:08;25.70;;;13.80;;
73563;SDS011;61834;50.196;6.454;2023-03-01T11:05:37;28.10;;;15.27;;
73563;SDS011;61834;50.196;6.454;2023-03-01T11:08:26;23.83;;;14.75;;
73563;SDS011;61834;50.196;6.454;2023-03-01T11:11:29;26.75;;;14.32;;
73563;SDS011;61834;50.196;6.454;2023-03-01T11:14:07;26.80;;;13.35;;
73563;SDS011;61834;50.196;6.454;2023-03-01T11:16:42;22.38;;;14.02;;
73563;SDS011;61834;50.196;6.454;2023-03-01T11:24:21;27.43;;;13.90;;
73563;SDS011;61834;50.196;6.454;2023-03-01T11:26:54;22.67;;;13.95;;
73563;SDS011;61834;50.196;6.454;2023-03-01T11:29:32;21.58;;;14.60;;
73563;SDS011;61834;50.196;6.454;2023-03-01T11:32:04;21.15;;;14.18;;
73563;SDS011;61834;50.196;6.454;2023-03-01T11:34:41;18.85;;;13.85;;
73563;SDS011;61834;50.196;6.454;2023-03-01T11:37:32;20.85;;;13.90;;
73563;SDS011;61834;50.196;6.454;2023-03-01T11:46:02;18.90;;;14.53;;
73563;SDS011;61834;50.196;6.454;2023-03-01T11:48:37;22.52;;;14.05;;
73563;SDS011;61834;50.196;6.454;2023-03-01T11:51:36;20.77;;;13.85;;
73563;SDS011;61834;50.196;6.454;2023-03-01T11:56:41;17.65;;;14.27;;
73563;SDS011;61834;50.196;6.454;2023-03-01T12:02:37;19.17;;;12.93;;
73563;SDS011;61834;50.196;6.454;2023-03-01T12:08:07;17.85;;;12.93;;
73563;SDS011;61834;50.196;6.454;2023-03-01T12:13:18;19.30;;;14.63;;
73563;SDS011;61834;50.196;6.454;2023-03-01T12:16:21;17.77;;;13.60;;
73563;SDS011;61834;50.196;6.454;2023-03-01T12:18:57;17.45;;;13.30;;
73563;SDS011;61834;50.196;6.454;2023-03-01T12:21:52;18.60;;;13.55;;
73563;SDS011;61834;50.196;6.454;2023-03-01T12:32:47;16.08;;;13.07;;
73563;SDS011;61834;50.196;6.454;2023-03-01T12:35:32;16.52;;;13.02;;
73563;SDS011;61834;50.196;6.454;2023-03-01T12:44:14;16.98;;;13.10;;
73563;SDS011;61834;50.196;6.454;2023-03-01T12:49:34;17.60;;;14.00;;
73563;SDS011;61834;50.196;6.454;2023-03-01T12:52:14;18.98;;;13.95;;
73563;SDS011;61834;50.196;6.454;2023-03-01T12:54:45;20.10;;;13.93;;
73563;SDS011;61834;50.196;6.454;2023-03-01T12:57:14;19.70;;;13.73;;
73563;SDS011;61834;50.196;6.454;2023-03-01T13:00:11;20.63;;;14.18;;
73563;SDS011;61834;50.196;6.454;2023-03-01T13:02:53;21.83;;;13.65;;
73563;SDS011;61834;50.196;6.454;2023-03-01T13:05:34;21.98;;;14.63;;
73563;SDS011;61834;50.196;6.454;2023-03-01T13:11:01;18.98;;;13.18;;
73563;SDS011;61834;50.196;6.454;2023-03-01T13:13:29;23.27;;;14.07;;
73563;SDS011;61834;50.196;6.454;2023-03-01T13:15:56;21.90;;;14.75;;
73563;SDS011;61834;50.196;6.454;2023-03-01T13:20:56;21.08;;;13.88;;
73563;SDS011;61834;50.196;6.454;2023-03-01T13:23:27;21.75;;;13.43;;
73563;SDS011;61834;50.196;6.454;2023-03-01T13:26:01;19.92;;;13.55;;
73563;SDS011;61834;50.196;6.454;2023-03-01T13:28:39;22.48;;;13.30;;
73563;SDS011;61834;50.196;6.454;2023-03-01T13:36:08;19.77;;;13.82;;
73563;SDS011;61834;50.196;6.454;2023-03-01T13:38:39;22.55;;;13.93;;
73563;SDS011;61834;50.196;6.454;2023-03-01T13:44:25;23.45;;;14.18;;
73563;SDS011;61834;50.196;6.454;2023-03-01T13:52:22;19.92;;;12.75;;
73563;SDS011;61834;50.196;6.454;2023-03-01T13:57:38;19.25;;;13.63;;
73563;SDS011;61834;50.196;6.454;2023-03-01T14:00:04;22.05;;;13.95;;
73563;SDS011;61834;50.196;6.454;2023-03-01T14:02:31;23.50;;;14.23;;
73563;SDS011;61834;50.196;6.454;2023-03-01T14:05:00;23.50;;;13.45;;
73563;SDS011;61834;50.196;6.454;2023-03-01T14:07:26;20.73;;;13.70;;
73563;SDS011;61834;50.196;6.454;2023-03-01T14:10:00;21.02;;;13.45;;
73563;SDS011;61834;50.196;6.454;2023-03-01T14:12:32;24.30;;;13.68;;
73563;SDS011;61834;50.196;6.454;2023-03-01T14:18:18;24.95;;;14.25;;
73563;SDS011;61834;50.196;6.454;2023-03-01T14:20:49;21.25;;;13.27;;
73563;SDS011;61834;50.196;6.454;2023-03-01T14:23:18;17.65;;;12.85;;
73563;SDS011;61834;50.196;6.454;2023-03-01T14:33:22;20.90;;;13.10;;
73563;SDS011;61834;50.196;6.454;2023-03-01T14:35:57;20.67;;;12.90;;
73563;SDS011;61834;50.196;6.454;2023-03-01T14:38:34;23.23;;;12.63;;
73563;SDS011;61834;50.196;6.454;2023-03-01T14:41:11;18.55;;;11.73;;
73563;SDS011;61834;50.196;6.454;2023-03-01T14:43:44;22.08;;;12.70;;
73563;SDS011;61834;50.196;6.454;2023-03-01T14:46:19;21.10;;;12.43;;
73563;SDS011;61834;50.196;6.454;2023-03-01T14:48:50;18.23;;;12.13;;
73563;SDS011;61834;50.196;6.454;2023-03-01T14:51:18;18.02;;;12.73;;
73563;SDS011;61834;50.196;6.454;2023-03-01T14:53:43;21.92;;;12.98;;
73563;SDS011;61834;50.196;6.454;2023-03-01T14:56:13;21.45;;;12.85;;
73563;SDS011;61834;50.196;6.454;2023-03-01T14:58:42;19.90;;;13.40;;
73563;SDS011;61834;50.196;6.454;2023-03-01T15:01:10;18.70;;;12.75;;
73563;SDS011;61834;50.196;6.454;2023-03-01T15:03:41;19.92;;;12.38;;
73563;SDS011;61834;50.196;6.454;2023-03-01T15:06:10;26.40;;;14.35;;
73563;SDS011;61834;50.196;6.454;2023-03-01T15:08:41;19.67;;;12.63;;
73563;SDS011;61834;50.196;6.454;2023-03-01T15:13:55;17.70;;;12.30;;
73563;SDS011;61834;50.196;6.454;2023-03-01T15:16:22;20.77;;;12.65;;
73563;SDS011;61834;50.196;6.454;2023-03-01T15:18:54;19.13;;;12.07;;
73563;SDS011;61834;50.196;6.454;2023-03-01T15:21:24;19.05;;;11.77;;
73563;SDS011;61834;50.196;6.454;2023-03-01T15:23:54;20.17;;;11.95;;
73563;SDS011;61834;50.196;6.454;2023-03-01T15:28:51;17.23;;;11.80;;
73563;SDS011;61834;50.196;6.454;2023-03-01T15:33:50;23.15;;;12.27;;
73563;SDS011;61834;50.196;6.454;2023-03-01T15:42:47;19.05;;;11.13;;
73563;SDS011;61834;50.196;6.454;2023-03-01T15:47:40;17.48;;;11.13;;
73563;SDS011;61834;50.196;6.454;2023-03-01T15:50:13;19.58;;;11.93;;
73563;SDS011;61834;50.196;6.454;2023-03-01T15:52:43;17.13;;;10.38;;
73563;SDS011;61834;50.196;6.454;2023-03-01T15:55:16;18.42;;;11.13;;
73563;SDS011;61834;50.196;6.454;2023-03-01T15:57:46;19.80;;;9.88;;
73563;SDS011;61834;50.196;6.454;2023-03-01T16:00:12;17.58;;;10.35;;
73563;SDS011;61834;50.196;6.454;2023-03-01T16:02:39;18.25;;;10.20;;
73563;SDS011;61834;50.196;6.454;2023-03-01T16:05:08;18.15;;;10.50;;
73563;SDS011;61834;50.196;6.454;2023-03-01T16:07:41;20.85;;;11.65;;
73563;SDS011;61834;50.196;6.454;2023-03-01T16:10:07;18.77;;;11.50;;
73563;SDS011;61834;50.196;6.454;2023-03-01T16:12:32;20.27;;;11.52;;
73563;SDS011;61834;50.196;6.454;2023-03-01T16:14:58;19.15;;;10.80;;
73563;SDS011;61834;50.196;6.454;2023-03-01T16:17:23;19.25;;;9.45;;
73563;SDS011;61834;50.196;6.454;2023-03-01T16:19:49;18.25;;;10.63;;
73563;SDS011;61834;50.196;6.454;2023-03-01T16:22:14;18.48;;;9.95;;
73563;SDS011;61834;50.196;6.454;2023-03-01T16:24:40;16.83;;;9.55;;
73563;SDS011;61834;50.196;6.454;2023-03-01T16:27:06;19.33;;;9.88;;
73563;SDS011;61834;50.196;6.454;2023-03-01T16:29:32;15.98;;;10.15;;
73563;SDS011;61834;50.196;6.454;2023-03-01T16:32:00;16.90;;;10.00;;
73563;SDS011;61834;50.196;6.454;2023-03-01T16:34:26;18.50;;;10.27;;
73563;SDS011;61834;50.196;6.454;2023-03-01T16:36:51;24.85;;;10.50;;
73563;SDS011;61834;50.196;6.454;2023-03-01T16:39:17;16.80;;;9.63;;
73563;SDS011;61834;50.196;6.454;2023-03-01T16:41:42;27.17;;;10.05;;